Tiempo atmosférico en la estación meteorológica de Chipiona, Cádiz (10 m.)



Fecha
DESCASC
Temp. máxima en grados centígrados (hora)
DESCASC
Temp. mínima en grados centígrados (hora)
DESCASC
Temp. media en grados centígrados
DESCASC
Racha de viento máxima en m/sg (hora)
DESCASC
Velocidad máxima media en intervalos de 10 minutos(hora)
DESCASC
Precipitaciones diarias en mm
DESCASC
Precipitaciones de 00:00 a 06:00 en mm
DESCASC
Precipitaciones de 06:00 a 12:00 en mm
DESCASC
Precipitaciones de 12:00 a 18:00 en mm
DESCASC
Precipitaciones de 18:00 a 24:00 en mm
DESCASC
23-05-2018 24.8 (14:40) 14.7 (07:20) 19.7 7.22 (15:30) 4.72 (15:10) 0 0 0 0 0
22-05-2018 21 (16:10) 16.5 (02:40) 18.8 6.94 (15:30) 4.72 (15:40) 0 0 0 0 0
21-05-2018 22.6 (14:50) 14.5 (06:30) 18.6 8.89 (16:30) 5.83 (16:30) 0 0 0 0 0
20-05-2018 23.3 (15:20) 13.3 (00:00) 18.3 8.06 (17:10) 5.56 (17:10) 0 0 0 0 0
19-05-2018 26.2 (13:20) 12.7 (00:00) 19.5 9.72 (20:30) 5.28 (20:30) 0 0 0 0 0
18-05-2018 26.5 (13:50) 14.7 (00:00) 20.6 8.06 (13:50) 5.56 (15:30) 0 0 0 0 0
17-05-2018 25.7 (13:10) 15.1 (00:00) 20.4 11.11 (01:10) 7.22 (19:10) 0 0 0 0 0
16-05-2018 28.1 (14:50) 13.4 (00:00) 20.8 10.56 (15:00) 6.39 (23:59) 0 0 0 0 0
15-05-2018 27.8 (17:30) 13.1 (00:00) 20.4 6.94 (15:30) 5 (15:30) 0 0 0 0 0
14-05-2018 25.5 (15:30) 11.9 (00:00) 18.7 8.06 (14:20) 5.28 (17:30) 0 0 0 0 0
13-05-2018 20.3 (14:10) 11.1 (00:00) 15.7 11.39 (00:30) 7.5 (01:30) 0 0 0 0 0
12-05-2018 21 (16:40) 14.6 (00:00) 17.8 13.33 (19:30) 8.33 (19:30) 0 0 0 0 0
11-05-2018 21.2 (15:20) 11.8 (07:20) 16.5 7.78 (18:20) 4.17 (18:20) 0 0 0 0 0
10-05-2018 19.7 (17:10) 13.6 (00:00) 16.7 8.06 (13:00) 4.72 (15:10) 0 0 0 0 0
09-05-2018 21.4 (16:50) 17 (00:00) 19.2 8.06 (01:50) 5 (06:20) 0 0 0 0 0
08-05-2018 22 (14:30) 14.8 (00:00) 18.4 8.06 (15:40) 5.83 (16:00) 0 0 0 0 0
07-05-2018 25.1 (16:40) 13.6 (00:00) 19.4 9.72 (17:00) 6.11 (17:00) 0.4 0 0 0.4 0
06-05-2018 27.3 (17:20) 13.4 (00:00) 20.3 11.39 (11:40) 6.67 (11:40) 0 0 0 0 0
05-05-2018 23.2 (17:40) 11.8 (00:00) 17.5 6.39 (14:40) 5 (16:00) 0 0 0 0 0
04-05-2018 21.7 (14:20) 14.1 (00:00) 17.9 8.33 (17:00) 5 (17:00) 0 0 0 0 0
03-05-2018 19.4 (16:30) 9 (00:00) 14.2 10.28 (19:40) 6.67 (19:40) 0 0 0 0 0
02-05-2018 17.6 (15:20) 11.3 (00:00) 14.5 7.78 (01:50) 5 (19:30) 0 0 0 0 0
01-05-2018 17.8 (17:40) 10.7 (08:10) 14.2 10.83 (17:20) 7.22 (17:10) 0.8 0 0 0 0.8
30-04-2018 16.6 (18:40) 10.6 (00:00) 13.6 7.78 (00:10) 5.28 (00:10) 0 0 0 0 0
29-04-2018 17.9 (15:20) 12.2 (00:00) 15 14.44 (19:30) 8.61 (00:10) 0.4 0.4 0 0 0
28-04-2018 18 (01:10) 13.3 (00:00) 15.7 11.94 (22:30) 7.5 (22:50) 0.4 0 0 0 0.4
27-04-2018 21 (17:20) 13.5 (00:00) 17.3 9.17 (20:40) 5.83 (20:50) 0 0 0 0 0
26-04-2018 20.8 (18:00) 14.6 (00:00) 17.7 10.28 (01:10) 5.28 (02:30) 6.4 6.4 0 0 0
25-04-2018 21.3 (15:00) 14.7 (00:00) 18 8.89 (00:20) 5 (18:00) 0 0 0 0 0
24-04-2018 23.2 (13:20) 15.7 (00:00) 19.5 8.89 (05:40) 5.56 (23:59) 1.2 1.2 0 0 0

Gráficas

Temp. máximas Temp. mínimas Temp. medias Precipitaciones Rachas de viento máximas Velocidades máximas media en intervalos de 10 minutos

Datos horarios

Fecha y hora oficial Temperatura (ºC) Velocidad del viento (km/h) Dirección del viento Racha (km/h) Dirección de racha Precipitación (mm) Presión (hPa) Tendencia (hPa) Humedad (%)
2018-05-23 23:00:00 18.8 12 Oeste 18 Oeste 0 -- -- 87
2018-05-23 22:00:00 19 10 Oeste 18 Oeste 0 -- -- 84
2018-05-23 21:00:00 19.3 13 Oeste 21 Oeste 0 -- -- 81
2018-05-23 20:00:00 19.9 14 Oeste 21 Oeste 0 -- -- 79
2018-05-23 19:00:00 20.8 16 Oeste 22 Oeste 0 -- -- 77
2018-05-23 18:00:00 21.7 15 Oeste 22 Oeste 0 -- -- 72
2018-05-23 17:00:00 21.8 15 Oeste 21 Oeste 0 -- -- 72
2018-05-23 16:00:00 21.9 14 Oeste 26 Sudoeste 0 -- -- 70
2018-05-23 15:00:00 23.1 14 Oeste 23 Oeste 0 -- -- 66
2018-05-23 14:00:00 22.9 7 Sur 16 Sur 0 -- -- 67
2018-05-23 13:00:00 22.2 8 Sur 21 Sur 0 -- -- 70
2018-05-23 12:00:00 21.6 7 Sur 13 Sur 0 -- -- 73
2018-05-23 11:00:00 20.4 5 Sur 12 Sudoeste 0 -- -- 79
2018-05-23 10:00:00 19.2 4 Sudoeste 6 Sudoeste 0 -- -- 87
2018-05-23 09:00:00 17.4 3 Sudeste 7 Este 0 -- -- 96
2018-05-23 08:00:00 15.4 4 Este 7 Este 0 -- -- 96
2018-05-23 07:00:00 14.9 3 Sudeste 8 Este 0 -- -- 94
2018-05-23 06:00:00 16.2 2 Este 6 Noroeste 0 -- -- 91
2018-05-23 05:00:00 16.7 5 Noroeste 8 Noroeste 0 -- -- 94
2018-05-23 04:00:00 16.1 0 Calma 5 Noroeste 0 -- -- 90
2018-05-23 03:00:00 17 2 Noroeste 8 Oeste 0 -- -- 88
2018-05-23 02:00:00 17.6 6 Oeste 16 Noroeste 0 -- -- 88
2018-05-23 01:00:00 18 10 Oeste 18 Noroeste 0 -- -- 88
2018-05-23 00:00:00 18.1 12 Oeste 19 Oeste 0 -- -- 86
2018-05-22 23:00:00 18.2 12 Oeste 18 Noroeste 0 -- -- 84
2018-05-22 22:00:00 18.3 9 Noroeste 19 Oeste 0 -- -- 83
2018-05-22 21:00:00 19.1 12 Oeste 21 Oeste 0 -- -- 78
2018-05-22 20:00:00 19.4 14 Oeste 22 Oeste 0 -- -- 75
2018-05-22 19:00:00 20 13 Noroeste 21 Oeste 0 -- -- 72
2018-05-22 18:00:00 20.1 14 Oeste 22 Oeste 0 -- -- 70
2018-05-22 17:00:00 20.9 15 Oeste 23 Oeste 0 -- -- 67
2018-05-22 16:00:00 20.9 15 Oeste 25 Oeste 0 -- -- 65
2018-05-22 15:00:00 20.7 14 Oeste 21 Oeste 0 -- -- 65
2018-05-22 14:00:00 20.6 13 Oeste 22 Oeste 0 -- -- 66
2018-05-22 13:00:00 20.1 12 Oeste 17 Oeste 0 -- -- 66
2018-05-22 12:00:00 19.6 9 Oeste 15 Oeste 0 -- -- 67
2018-05-22 11:00:00 18.5 4 Noroeste 8 Oeste 0 -- -- 71
2018-05-22 10:00:00 17.8 3 Noroeste 9 Oeste 0 -- -- 74
2018-05-22 09:00:00 17.2 5 Oeste 10 Oeste 0 -- -- 76
2018-05-22 08:00:00 16.8 4 Este 6 Sudeste 0 -- -- 79
2018-05-22 07:00:00 16.6 5 Sudeste 11 Sur 0 -- -- 79
2018-05-22 06:00:00 16.8 5 Sur 13 Sur 0 -- -- 80
2018-05-22 05:00:00 16.7 5 Sudoeste 12 Sudoeste 0 -- -- 80
2018-05-22 04:00:00 16.8 4 Sur 12 Sudoeste 0 -- -- 80
2018-05-22 03:00:00 16.6 7 Sur 14 Sur 0 -- -- 82
2018-05-22 02:00:00 16.8 8 Sudoeste 17 Sudoeste 0 -- -- 80
2018-05-22 01:00:00 17.1 9 Sudoeste 19 Sudoeste 0 -- -- 79
2018-05-22 00:00:00 17.3 9 Sudoeste 18 Sur 0 -- -- 79
2018-05-21 23:00:00 17.3 9 Sudoeste 19 Sudoeste 0 -- -- 81
2018-05-21 22:00:00 17.3 9 Sudoeste 20 Sudoeste 0 -- -- 81
2018-05-21 21:00:00 17.6 13 Sudoeste 24 Sudoeste 0 -- -- 80
2018-05-21 20:00:00 18.4 14 Sudoeste 28 Oeste 0 -- -- 78
2018-05-21 19:00:00 18.7 16 Sudoeste 30 Sudoeste 0 -- -- 76
2018-05-21 18:00:00 20.3 16 Sudoeste 32 Sudoeste 0 -- -- 73
2018-05-21 17:00:00 20.9 20 Sudoeste 32 Sudoeste 0 -- -- 72
2018-05-21 16:00:00 21.6 19 Sudoeste 30 Sudoeste 0 -- -- 72
2018-05-21 15:00:00 22.2 16 Sudoeste 28 Sudoeste 0 -- -- 68
2018-05-21 14:00:00 22 12 Sudoeste 22 Sur 0 -- -- 72
2018-05-21 13:00:00 22.2 12 Sur 23 Sudoeste 0 -- -- 72
2018-05-21 12:00:00 21.3 10 Sur 18 Sudoeste 0 -- -- 74
2018-05-21 11:00:00 20 9 Sur 15 Sur 0 -- -- 79
2018-05-21 10:00:00 18.8 7 Sudeste 12 Sudeste 0 -- -- 85
2018-05-21 09:00:00 17.3 3 Sur 10 Sudeste 0 -- -- 84
2018-05-21 08:00:00 14.8 4 Sudeste 5 Sudeste 0 -- -- 89
2018-05-21 07:00:00 14.5 3 Este 5 Sudeste 0 -- -- 89
2018-05-21 06:00:00 14.7 3 Este 4 Este 0 -- -- 91
2018-05-21 05:00:00 15.3 2 Sudeste 4 Sudeste 0 -- -- 89
2018-05-21 04:00:00 16.2 3 Sudoeste 5 Este 0 -- -- 86
2018-05-21 03:00:00 17.3 3 Este 6 Este 0 -- -- 84
2018-05-21 02:00:00 17.8 0 Calma 5 Este 0 -- -- 83
2018-05-21 01:00:00 17.8 4 Este 8 Este 0 -- -- 83
2018-05-21 00:00:00 18.7 0 Calma 6 Noroeste 0 -- -- 79
2018-05-20 23:00:00 18.8 4 Noroeste 15 Oeste 0 -- -- 78
2018-05-20 22:00:00 19.3 10 Oeste 14 Oeste 0 -- -- 82
2018-05-20 21:00:00 20.2 0 Calma 13 Oeste 0 -- -- 75
2018-05-20 20:00:00 20.2 10 Oeste 15 Oeste 0 -- -- 75
2018-05-20 19:00:00 21 11 Oeste 21 Oeste 0 -- -- 70
2018-05-20 18:00:00 20.9 15 Oeste 29 Oeste 0 -- -- 71
2018-05-20 17:00:00 20.6 18 Oeste 27 Oeste 0 -- -- 76
2018-05-20 16:00:00 21.2 17 Oeste 24 Oeste 0 -- -- 71
2018-05-20 15:00:00 22.9 18 Oeste 23 Oeste 0 -- -- 63
2018-05-20 14:00:00 22.8 17 Oeste 24 Oeste 0 -- -- 65
2018-05-20 13:00:00 22.6 15 Oeste 21 Oeste 0 -- -- 68
2018-05-20 12:00:00 22.5 11 Oeste 15 Oeste 0 -- -- 59
2018-05-20 11:00:00 22.5 6 Oeste 10 Oeste 0 -- -- 64
2018-05-20 10:00:00 21 3 Nordeste 8 Este 0 -- -- 67
2018-05-20 09:00:00 18 3 Nordeste 5 Este 0 -- -- 75
2018-05-20 08:00:00 13.6 3 Este 6 Este 0 -- -- 87
2018-05-20 07:00:00 13.4 3 Este 5 Sudeste 0 -- -- 88
2018-05-20 06:00:00 13.7 3 Sudeste 5 Sudeste 0 -- -- 88
2018-05-20 05:00:00 14.1 2 Este 4 Este 0 -- -- 87
2018-05-20 04:00:00 14.5 0 Calma 5 Este 0 -- -- 85
2018-05-20 03:00:00 15.1 2 Este 6 Sudeste 0 -- -- 84
2018-05-20 02:00:00 15.8 3 Norte 5 Norte 0 -- -- 82
2018-05-20 01:00:00 16.3 4 Sudeste 7 Sudeste 0 -- -- 80
2018-05-20 00:00:00 17.5 2 Este 4 Sudoeste 0 -- -- 80
2018-05-19 23:00:00 18.6 2 Sudeste 6 Sudeste 0 -- -- 75
2018-05-19 22:00:00 20.2 4 Nordeste 19 Nordeste 0 -- -- 67
2018-05-19 21:00:00 21.4 10 Nordeste 35 Nordeste 0 -- -- 64
2018-05-19 20:00:00 22.9 7 Sur 22 Sur 0 -- -- 61
2018-05-19 19:00:00 24.3 14 Sudoeste 27 Sur 0 -- -- 55
2018-05-19 18:00:00 25.5 14 Sur 28 Sur 0 -- -- 50
2018-05-19 17:00:00 24.8 17 Sur 30 Sudoeste 0 -- -- 53
2018-05-19 16:00:00 24.6 16 Sudoeste 26 Sur 0 -- -- 58
2018-05-19 15:00:00 24.9 15 Sur 30 Sur 0 -- -- 57
2018-05-19 14:00:00 25.5 9 Oeste 22 Sudoeste 0 -- -- 53
2018-05-19 13:00:00 25.9 12 Este 23 Este 0 -- -- 40
2018-05-19 12:00:00 23.9 8 Este 17 Este 0 -- -- 46
2018-05-19 11:00:00 22 8 Este 18 Sudeste 0 -- -- 56
2018-05-19 10:00:00 20.1 8 Nordeste 14 Este 0 -- -- 62
2018-05-19 09:00:00 17.4 8 Nordeste 13 Nordeste 0 -- -- 86
2018-05-19 08:00:00 13.6 5 Nordeste 9 Nordeste 0 -- -- 94
2018-05-19 07:00:00 13 4 Nordeste 6 Nordeste 0 -- -- 91
2018-05-19 06:00:00 13.4 4 Sudeste 8 Nordeste 0 -- -- 89
2018-05-19 05:00:00 13.8 0 Calma 8 Norte 0 -- -- 87
2018-05-19 04:00:00 14.5 2 Noroeste 8 Sudeste 0 -- -- 84
2018-05-19 03:00:00 15.7 4 Norte 9 Nordeste 0 -- -- 82
2018-05-19 02:00:00 15.7 3 Nordeste 7 Nordeste 0 -- -- 82
2018-05-19 01:00:00 16.7 0 Calma 5 Este 0 -- -- 82
2018-05-19 00:00:00 17.9 2 Noroeste 6 Norte 0 -- -- 84
2018-05-18 23:00:00 18.9 5 Nordeste 19 Este 0 -- -- 78
2018-05-18 22:00:00 20.4 5 Nordeste 19 Sudeste 0 -- -- 53
2018-05-18 21:00:00 22.7 8 Este 28 Sudeste 0 -- -- 44
2018-05-18 20:00:00 24.3 15 Sudeste 27 Este 0 -- -- 43
2018-05-18 19:00:00 22.5 5 Noroeste 28 Noroeste 0 -- -- 64
2018-05-18 18:00:00 23.6 14 Sudoeste 23 Sudoeste 0 -- -- 62
2018-05-18 17:00:00 23.7 13 Sudoeste 29 Sudoeste 0 -- -- 61
2018-05-18 16:00:00 21.8 17 Sudoeste 27 Oeste 0 -- -- 71
2018-05-18 15:00:00 23.8 19 Sudoeste 27 Sudoeste 0 -- -- 61
2018-05-18 14:00:00 26.5 8 Este 29 Este 0 -- -- 40
2018-05-18 13:00:00 25.6 12 Este 24 Este 0 -- -- 44
2018-05-18 12:00:00 23 7 Este 21 Este 0 -- -- 59
2018-05-18 11:00:00 21.5 13 Nordeste 24 Nordeste 0 -- -- 65
2018-05-18 10:00:00 19.7 10 Nordeste 21 Nordeste 0 -- -- 76
2018-05-18 09:00:00 17.7 8 Nordeste 14 Este 0 -- -- 81
2018-05-18 08:00:00 15.1 6 Nordeste 11 Nordeste 0 -- -- 85
2018-05-18 07:00:00 14.9 5 Nordeste 10 Nordeste 0 -- -- 85
2018-05-18 06:00:00 15.1 4 Nordeste 7 Nordeste 0 -- -- 80
2018-05-18 05:00:00 16.5 4 Nordeste 17 Sudeste 0 -- -- 74
2018-05-18 04:00:00 17.4 10 Sudeste 26 Sudeste 0 -- -- 71
2018-05-18 03:00:00 17.2 11 Este 23 Sudeste 0 -- -- 73
2018-05-18 02:00:00 17.3 9 Este 23 Sudeste 0 -- -- 76
2018-05-18 01:00:00 17.8 10 Sudeste 25 Sudeste 0 -- -- 77
2018-05-18 00:00:00 18.1 14 Sudeste 27 Sudeste 0 -- -- 74
2018-05-17 23:00:00 18.8 14 Sudeste 28 Sudeste 0 -- -- 68
2018-05-17 22:00:00 19.7 18 Sudeste 30 Sudeste 0 -- -- 65
2018-05-17 21:00:00 20.9 17 Sudeste 31 Sudeste 0 -- -- 66
2018-05-17 20:00:00 22.7 20 Sudeste 38 Sur 0 -- -- 58
2018-05-17 19:00:00 24.2 24 Sudeste 39 Sudeste 0 -- -- 52
2018-05-17 18:00:00 24.7 18 Sur 29 Sur 0 -- -- 57
2018-05-17 17:00:00 24.8 14 Sur 29 Sudoeste 0 -- -- 57
2018-05-17 16:00:00 24.7 17 Sur 29 Sudoeste 0 -- -- 57
2018-05-17 15:00:00 24.6 15 Sudoeste 26 Sudoeste 0 -- -- 56
2018-05-17 14:00:00 24.8 13 Oeste 21 Sudoeste 0 -- -- 53
2018-05-17 13:00:00 25.3 8 Nordeste 20 Sudeste 0 -- -- 42
2018-05-17 12:00:00 23.8 9 Este 24 Este 0 -- -- 47
2018-05-17 11:00:00 22.2 13 Este 24 Este 0 -- -- 52
2018-05-17 10:00:00 20.5 13 Este 25 Este 0 -- -- 57
2018-05-17 09:00:00 18.7 9 Nordeste 19 Este 0 -- -- 61
2018-05-17 08:00:00 15.2 8 Nordeste 13 Nordeste 0 -- -- 67
2018-05-17 07:00:00 15.7 6 Nordeste 22 Este 0 -- -- 67
2018-05-17 06:00:00 17.1 14 Este 30 Este 0 -- -- 63
2018-05-17 05:00:00 17.5 17 Este 30 Este 0 -- -- 60
2018-05-17 04:00:00 18 19 Este 36 Sudeste 0 -- -- 55
2018-05-17 03:00:00 18.2 21 Este 36 Este 0 -- -- 56
2018-05-17 02:00:00 18.2 16 Este 40 Sudeste 0 -- -- 56
2018-05-17 01:00:00 18.5 21 Este 37 Sudeste 0 -- -- 54
2018-05-17 00:00:00 18.4 23 Sudeste 37 Sudeste 0 -- -- 59
2018-05-16 23:00:00 19 17 Sudeste 34 Sudeste 0 -- -- 53
2018-05-16 22:00:00 20.2 16 Sudeste 36 Sudeste 0 -- -- 46
2018-05-16 21:00:00 22.4 19 Sudeste 35 Sudeste 0 -- -- 40
2018-05-16 20:00:00 24.4 18 Sudeste 34 Sudeste 0 -- -- 40
2018-05-16 19:00:00 26.3 22 Sudeste 33 Sudeste 0 -- -- 39
2018-05-16 18:00:00 27.5 13 Sur 28 Sudoeste 0 -- -- 39
2018-05-16 17:00:00 26.6 15 Sudoeste 26 Sudoeste 0 -- -- 39
2018-05-16 16:00:00 25.9 18 Oeste 29 Sudoeste 0 -- -- 43
2018-05-16 15:00:00 27.6 13 Sur 38 Este 0 -- -- 42
2018-05-16 14:00:00 27.2 14 Nordeste 30 Nordeste 0 -- -- 32
2018-05-16 13:00:00 25.8 10 Este 24 Nordeste 0 -- -- 37
2018-05-16 12:00:00 24.1 9 Nordeste 24 Nordeste 0 -- -- 41
2018-05-16 11:00:00 22.1 12 Nordeste 19 Nordeste 0 -- -- 44
2018-05-16 10:00:00 19.9 8 Nordeste 14 Nordeste 0 -- -- 47
2018-05-16 09:00:00 18 8 Nordeste 15 Este 0 -- -- 49
2018-05-16 08:00:00 15.2 11 Este 23 Este 0 -- -- 57
2018-05-16 07:00:00 13.6 7 Este 13 Este 0 -- -- 62
2018-05-16 06:00:00 14.1 5 Este 10 Este 0 -- -- 61
2018-05-16 05:00:00 14 5 Este 10 Este 0 -- -- 61
2018-05-16 04:00:00 13.7 6 Este 12 Este 0 -- -- 62
2018-05-16 03:00:00 13.9 4 Sudeste 6 Este 0 -- -- 66
2018-05-16 02:00:00 15.2 3 Sudeste 8 Sur 0 -- -- 58
2018-05-16 01:00:00 15.7 3 Sudeste 7 Sudeste 0 -- -- 65
2018-05-16 00:00:00 16.9 3 Sudoeste 6 Sudoeste 0 -- -- 61
2018-05-15 23:00:00 18.7 2 Este 8 Sur 0 -- -- 60
2018-05-15 22:00:00 19.8 5 Sur 7 Sur 0 -- -- 63
2018-05-15 21:00:00 21.9 5 Sudoeste 16 Oeste 0 -- -- 64
2018-05-15 20:00:00 22.9 11 Oeste 23 Oeste 0 -- -- 64
2018-05-15 19:00:00 27.3 11 Sudoeste 18 Sudoeste 0 -- -- 31
2018-05-15 18:00:00 27.6 11 Sur 21 Sudoeste 0 -- -- 30
2018-05-15 17:00:00 27.5 13 Sudoeste 21 Oeste 0 -- -- 30
2018-05-15 16:00:00 27 15 Sudoeste 25 Oeste 0 -- -- 32
2018-05-15 15:00:00 26.6 9 Oeste 21 Este 0 -- -- 36
2018-05-15 14:00:00 26.7 6 Nordeste 18 Este 0 -- -- 33
2018-05-15 13:00:00 25.4 9 Este 21 Este 0 -- -- 36
2018-05-15 12:00:00 23.6 10 Nordeste 22 Nordeste 0 -- -- 42
2018-05-15 11:00:00 21.4 13 Nordeste 22 Nordeste 0 -- -- 48
2018-05-15 10:00:00 18.6 11 Nordeste 18 Este 0 -- -- 58
2018-05-15 09:00:00 16.9 8 Nordeste 15 Nordeste 0 -- -- 63
2018-05-15 08:00:00 13.4 5 Nordeste 9 Nordeste 0 -- -- 79
2018-05-15 07:00:00 13.1 5 Nordeste 8 Nordeste 0 -- -- 80
2018-05-15 06:00:00 13.3 6 Nordeste 9 Nordeste 0 -- -- 84
2018-05-15 05:00:00 13.4 3 Nordeste 5 Este 0 -- -- 89
2018-05-15 04:00:00 14.2 3 Este 8 Este 0 -- -- 88
2018-05-15 03:00:00 14.8 4 Nordeste 6 Nordeste 0 -- -- 86
2018-05-15 02:00:00 15.8 2 Este 7 Este 0 -- -- 84
2018-05-15 01:00:00 16.7 3 Este 18 Sudeste 0 -- -- 85
2018-05-15 00:00:00 18 2 Noroeste 9 Norte 0 -- -- 86
2018-05-14 23:00:00 18.3 3 Oeste 16 Oeste 0 -- -- 83
2018-05-14 22:00:00 19.2 10 Oeste 16 Oeste 0 -- -- 80
2018-05-14 21:00:00 20.5 9 Sudoeste 23 Oeste 0 -- -- 71
2018-05-14 20:00:00 22.1 17 Oeste 24 Oeste 0 -- -- 63
2018-05-14 19:00:00 22.8 13 Oeste 27 Oeste 0 -- -- 58
2018-05-14 18:00:00 23.1 17 Oeste 25 Oeste 0 -- -- 56
2018-05-14 17:00:00 23.4 15 Oeste 25 Oeste 0 -- -- 57
2018-05-14 16:00:00 23.3 14 Oeste 26 Oeste 0 -- -- 55
2018-05-14 15:00:00 24.5 11 Norte 29 Norte 0 -- -- 38
2018-05-14 14:00:00 23.6 12 Norte 26 Norte 0 -- -- 39
2018-05-14 13:00:00 22.2 11 Norte 23 Noroeste 0 -- -- 42
2018-05-14 12:00:00 20.8 12 Nordeste 27 Nordeste 0 -- -- 48
2018-05-14 11:00:00 19.2 9 Norte 23 Nordeste 0 -- -- 52
2018-05-14 10:00:00 17.7 10 Norte 20 Norte 0 -- -- 58
2018-05-14 09:00:00 15.6 8 Norte 18 Norte 0 -- -- 64
2018-05-14 08:00:00 14 9 Norte 18 Norte 0 -- -- 69
2018-05-14 07:00:00 13.3 8 Norte 17 Norte 0 -- -- 73
2018-05-14 06:00:00 12 3 Norte 11 Norte 0 -- -- 80
2018-05-14 05:00:00 12.6 3 Norte 8 Norte 0 -- -- 75
2018-05-14 04:00:00 14 4 Noroeste 9 Norte 0 -- -- 72
2018-05-14 03:00:00 15.1 4 Norte 9 Norte 0 -- -- 66
2018-05-14 02:00:00 15.6 3 Norte 13 Norte 0 -- -- 66
2018-05-14 01:00:00 15.2 4 Nordeste 9 Norte 0 -- -- 65
2018-05-11 20:00:00 -- -- -- -- -- -- -- -- --
2018-05-11 19:00:00 19.7 14 Sudoeste 28 Sudoeste 0 -- -- 67
2018-05-11 18:00:00 20.3 14 Sudoeste 26 Sudoeste 0 -- -- 65
2018-05-11 17:00:00 20.4 12 Sur 27 Sur 0 -- -- 66
2018-05-11 16:00:00 20.5 13 Sudoeste 24 Sur 0 -- -- 67
2018-05-11 15:00:00 21 12 Sudoeste 24 Sur 0 -- -- 64
2018-05-11 14:00:00 21 13 Sudoeste 23 Sudoeste 0 -- -- 62
2018-05-11 13:00:00 20.1 10 Sur 24 Sudoeste 0 -- -- 63
2018-05-11 12:00:00 18.7 6 Sur 17 Sur 0 -- -- 69
2018-05-11 11:00:00 18.5 7 Este 16 Este 0 -- -- 68
2018-05-11 10:00:00 15.8 6 Este 13 Este 0 -- -- 85
2018-05-11 09:00:00 14.1 7 Este 12 Este 0 -- -- 91
2018-05-11 08:00:00 12 4 Este 8 Este 0 -- -- 94
2018-05-11 07:00:00 12 4 Este 9 Este 0 -- -- 93
2018-05-11 06:00:00 12.4 5 Este 10 Este 0 -- -- 91
2018-05-11 05:00:00 13.5 3 Este 8 Este 0 -- -- 90
2018-05-11 04:00:00 13.6 4 Sudeste 6 Sudeste 0 -- -- 92
2018-05-11 03:00:00 12.4 3 Este 5 Sudeste 0 -- -- 93
2018-05-11 02:00:00 12.2 3 Sudeste 5 Sudeste 0 -- -- 90
2018-05-11 01:00:00 12.8 0 Calma 5 Sudeste 0 -- -- 89
2018-05-11 00:00:00 13.6 0 Calma 6 Este 0 -- -- 87
2018-05-10 23:00:00 14.5 2 Sudeste 5 Sur 0 -- -- 84
2018-05-10 22:00:00 15.4 4 Sudoeste 12 Sudoeste 0 -- -- 81
2018-05-10 21:00:00 16.8 8 Sudoeste 17 Sudoeste 0 -- -- 74
2018-05-10 20:00:00 18.1 11 Sudoeste 22 Sur 0 -- -- 73
2018-05-10 19:00:00 19.1 11 Sur 26 Sur 0 -- -- 71
2018-05-10 18:00:00 19.5 15 Sudoeste 25 Sur 0 -- -- 66
2018-05-10 17:00:00 19.3 13 Sudoeste 28 Sur 0 -- -- 68
2018-05-10 16:00:00 19 15 Sudoeste 27 Sudoeste 0 -- -- 67
2018-05-10 15:00:00 18.7 15 Sudoeste 28 Sudoeste 0 -- -- 68
2018-05-10 14:00:00 18.5 10 Sudoeste 24 Sudoeste 0 -- -- 69
2018-05-10 13:00:00 18.2 13 Sudoeste 29 Oeste 0 -- -- 69
2018-05-10 12:00:00 17.2 9 Oeste 17 Oeste 0 -- -- 75
2018-05-10 11:00:00 16.4 8 Noroeste 14 Sudoeste 0 -- -- 79
2018-05-10 10:00:00 16 3 Oeste 13 Oeste 0 -- -- 80
2018-05-10 09:00:00 15.1 6 Noroeste 14 Noroeste 0 -- -- 84
2018-05-10 08:00:00 15.1 9 Noroeste 16 Noroeste 0 -- -- 85
2018-05-10 07:00:00 15.5 10 Oeste 18 Oeste 0 -- -- 83
2018-05-10 06:00:00 15.8 3 Noroeste 18 Noroeste 0 -- -- 83
2018-05-10 05:00:00 16.2 12 Noroeste 24 Noroeste 0 -- -- 86
2018-05-10 04:00:00 16.8 17 Oeste 26 Oeste 0 -- -- 85
2018-05-10 03:00:00 17.4 8 Sur 15 Sur 0 -- -- 91
2018-05-10 02:00:00 17.2 5 Sudoeste 10 Sudoeste 0 -- -- 87
2018-05-10 01:00:00 17.3 5 Sur 9 Sur 0 -- -- 85
2018-05-10 00:00:00 17.2 3 Sur 9 Sudoeste 0 -- -- 84
2018-05-09 23:00:00 17.3 4 Sudoeste 13 Sudoeste 0 -- -- 83
2018-05-09 22:00:00 17.4 8 Sur 17 Sudoeste 0 -- -- 85
2018-05-09 21:00:00 17.6 10 Sudoeste 22 Sur 0 -- -- 82
2018-05-09 20:00:00 18 15 Sudoeste 26 Sur 0 -- -- 81
2018-05-09 19:00:00 19.9 14 Sur 25 Sudoeste 0 -- -- 73
2018-05-09 18:00:00 20.2 11 Sudoeste 19 Sudoeste 0 -- -- 73
2018-05-09 17:00:00 21.3 12 Sudoeste 20 Sudoeste 0 -- -- 67
2018-05-09 16:00:00 20.4 12 Sur 22 Sudoeste 0 -- -- 74
2018-05-09 15:00:00 18.6 16 Sudoeste 25 Oeste 0 -- -- 82
2018-05-09 14:00:00 18.8 13 Sudoeste 22 Sudoeste 0 -- -- 84
2018-05-09 13:00:00 17.5 13 Sudoeste 20 Oeste 0 -- -- 90
2018-05-09 12:00:00 17.7 10 Sudoeste 17 Sur 0 -- -- 90
2018-05-09 11:00:00 17.9 10 Sudoeste 15 Sudoeste 0 -- -- 92
2018-05-09 10:00:00 18.1 9 Sudoeste 18 Sur 0 -- -- 92
2018-05-09 09:00:00 17.7 10 Sudeste 21 Sudeste 0 -- -- 94
2018-05-09 08:00:00 17.2 12 Sudeste 24 Sur 0 -- -- 95
2018-05-09 07:00:00 17.1 15 Sur 28 Sur 0 -- -- 95
2018-05-09 06:00:00 17.1 18 Sur 27 Sudeste 0 -- -- 94
2018-05-09 05:00:00 17.1 17 Sudeste 29 Sur 0 -- -- 94
2018-05-09 04:00:00 17.1 15 Sur 24 Sur 0 -- -- 94
2018-05-09 03:00:00 17.1 15 Sur 26 Sur 0 -- -- 94
2018-05-09 02:00:00 17.1 18 Sur 29 Sudeste 0 -- -- 95
2018-05-09 01:00:00 17.1 14 Sur 25 Sur 0 -- -- 95
2018-05-09 00:00:00 17.2 15 Sur 22 Sur 0 -- -- 94
2018-05-08 23:00:00 17.4 9 Sur 18 Sur 0 -- -- 94
2018-05-08 22:00:00 17.6 8 Sur 22 Sudoeste 0 -- -- 93
2018-05-08 21:00:00 17.8 10 Sudoeste 24 Sudoeste 0 -- -- 90
2018-05-08 20:00:00 18.3 13 Sudoeste 27 Sudoeste 0 -- -- 88
2018-05-08 19:00:00 20.4 16 Sudoeste 24 Sudoeste 0 -- -- 76
2018-05-08 18:00:00 20.5 16 Sudoeste 27 Oeste 0 -- -- 76
2018-05-08 17:00:00 21.6 18 Sudoeste 26 Sudoeste 0 -- -- 73
2018-05-08 16:00:00 20.7 21 Oeste 29 Oeste 0 -- -- 76
2018-05-08 15:00:00 20.9 20 Oeste 28 Oeste 0 -- -- 78
2018-05-08 14:00:00 21.6 13 Sudoeste 22 Sudoeste 0 -- -- 73
2018-05-08 13:00:00 21.1 9 Sudoeste 15 Oeste 0 -- -- 75
2018-05-08 12:00:00 20.3 7 Oeste 14 Oeste 0 -- -- 78
2018-05-08 11:00:00 19.8 10 Sudoeste 19 Sudoeste 0 -- -- 81
2018-05-08 10:00:00 19 10 Sudoeste 19 Sudoeste 0 -- -- 89
2018-05-08 09:00:00 17.3 9 Sur 18 Sur 0 -- -- 97
2018-05-08 08:00:00 15.4 5 Sur 9 Sur 0 -- -- 98
2018-05-08 07:00:00 15.2 4 Sur 10 Sudeste 0 -- -- 98
2018-05-08 06:00:00 15.1 4 Sudeste 8 Sur 0 -- -- 97
2018-05-08 05:00:00 14.8 3 Sudeste 6 Sudeste 0 -- -- 96
2018-05-08 04:00:00 14.9 3 Sudeste 8 Sudeste 0 -- -- 95
2018-05-08 03:00:00 15 5 Sudeste 7 Sudeste 0 -- -- 93
2018-05-08 02:00:00 16.2 2 Sudoeste 12 Oeste 0 -- -- 90
2018-05-08 01:00:00 17.1 9 Oeste 14 Oeste 0 -- -- 90
2018-05-08 00:00:00 17.4 7 Oeste 17 Oeste 0 -- -- 88
2018-05-07 23:00:00 17.6 10 Oeste 15 Oeste 0 -- -- 89
2018-05-07 22:00:00 17.8 8 Sudoeste 16 Sudoeste 0 -- -- 81
2018-05-07 21:00:00 18.4 10 Sudoeste 20 Oeste 0 -- -- 80
2018-05-07 20:00:00 19.7 13 Oeste 20 Oeste 0 -- -- 77
2018-05-07 19:00:00 20.4 15 Oeste 23 Oeste 0 -- -- 74
2018-05-07 18:00:00 20.9 18 Oeste 33 Sudoeste 0 -- -- 71
2018-05-07 17:00:00 22.4 22 Oeste 35 Sudoeste 0 -- -- 69
2018-05-07 16:00:00 24.6 7 Este 26 Sudeste 0 -- -- 49
2018-05-07 15:00:00 23.5 15 Este 33 Este 0 -- -- 57
2018-05-07 14:00:00 21.6 9 Sur 19 Sur 0 -- -- 76
2018-05-07 13:00:00 18.9 5 Sudeste 18 Sudeste 0.4 -- -- 80
2018-05-07 12:00:00 19.5 15 Sudeste 22 Sudeste 0 -- -- 69
2018-05-07 11:00:00 19.7 4 Sur 6 Sudoeste 0 -- -- 75
2018-05-07 10:00:00 18.3 4 Sudeste 8 Nordeste 0 -- -- 82
2018-05-07 09:00:00 17.2 3 Norte 7 Nordeste 0 -- -- 88
2018-05-07 08:00:00 14.4 2 Nordeste 8 Sudeste 0 -- -- 88
2018-05-07 07:00:00 14.4 5 Sur 9 Sudeste 0 -- -- 88
2018-05-07 06:00:00 14.6 2 Norte 10 Norte 0 -- -- 88
2018-05-07 05:00:00 13.6 2 Este 4 Este 0 -- -- 82
2018-05-07 04:00:00 14.7 3 Nordeste 5 Nordeste 0 -- -- 78
2018-05-07 03:00:00 15.8 4 Norte 11 Este 0 -- -- 74
2018-05-07 02:00:00 16.1 5 Este 9 Este 0 -- -- 73
2018-05-07 01:00:00 16.5 4 Este 7 Este 0 -- -- 75
2018-05-07 00:00:00 18 0 Calma 12 Sudeste 0 -- -- 68
2018-05-06 23:00:00 19.4 2 Nordeste 12 Este 0 -- -- 66
2018-05-06 22:00:00 20 8 Este 21 Sudeste 0 -- -- 64
2018-05-06 21:00:00 21.4 16 Sudeste 38 Sudeste 0 -- -- 56
2018-05-06 20:00:00 24.1 20 Este 37 Este 0 -- -- 48
2018-05-06 19:00:00 25.3 21 Sudeste 37 Sudeste 0 -- -- 47
2018-05-06 18:00:00 26.5 19 Este 40 Este 0 -- -- 43
2018-05-06 17:00:00 26.5 10 Este 32 Este 0 -- -- 45
2018-05-06 16:00:00 26.6 7 Este 30 Este 0 -- -- 46
2018-05-06 15:00:00 26.6 14 Este 35 Este 0 -- -- 40
2018-05-06 14:00:00 26.1 19 Este 33 Este 0 -- -- 42
2018-05-06 13:00:00 24.9 13 Nordeste 28 Norte 0 -- -- 48
2018-05-06 12:00:00 23.9 16 Este 41 Este 0 -- -- 50
2018-05-06 11:00:00 22.5 15 Nordeste 27 Este 0 -- -- 52
2018-05-06 10:00:00 20.2 10 Nordeste 17 Nordeste 0 -- -- 63
2018-05-06 09:00:00 17.4 9 Este 15 Este 0 -- -- 76
2018-05-06 08:00:00 13.9 6 Nordeste 12 Nordeste 0 -- -- 86
2018-05-06 07:00:00 13.9 7 Nordeste 17 Este 0 -- -- 82
2018-05-06 06:00:00 14.2 9 Nordeste 15 Nordeste 0 -- -- 78
2018-05-06 05:00:00 13.4 3 Norte 6 Nordeste 0 -- -- 86
2018-05-06 04:00:00 13.6 2 Nordeste 5 Nordeste 0 -- -- 85
2018-05-06 03:00:00 14 0 Calma 5 Nordeste 0 -- -- 84
2018-05-06 02:00:00 15 0 Calma 7 Nordeste 0 -- -- 82
2018-05-06 01:00:00 15.6 3 Sudeste 4 Sudeste 0 -- -- 85
2018-05-06 00:00:00 16.4 0 Calma 4 Sudeste 0 -- -- 88
2018-05-05 23:00:00 17 0 Calma 5 Sudeste 0 -- -- 85
2018-05-05 22:00:00 18 0 Calma 8 Noroeste 0 -- -- 81
2018-05-05 21:00:00 19.3 5 Noroeste 12 Oeste 0 -- -- 77
2018-05-05 20:00:00 20.2 9 Oeste 16 Oeste 0 -- -- 73
2018-05-05 19:00:00 20.7 12 Oeste 22 Oeste 0 -- -- 74
2018-05-05 18:00:00 22.1 14 Oeste 22 Oeste 0 -- -- 64
2018-05-05 17:00:00 22.7 15 Oeste 23 Oeste 0 -- -- 63
2018-05-05 16:00:00 21.9 18 Oeste 23 Sudoeste 0 -- -- 71
2018-05-05 15:00:00 21.2 17 Oeste 23 Oeste 0 -- -- 76
2018-05-05 14:00:00 22.5 13 Oeste 21 Nordeste 0 -- -- 67
2018-05-05 13:00:00 22.4 8 Nordeste 19 Este 0 -- -- 61
2018-05-05 12:00:00 20.8 7 Nordeste 14 Este 0 -- -- 65
2018-05-05 11:00:00 19 4 Nordeste 13 Sudeste 0 -- -- 76
2018-05-05 10:00:00 16.6 4 Este 9 Este 0 -- -- 85
2018-05-05 09:00:00 14.3 5 Este 9 Sudeste 0 -- -- 95
2018-05-05 08:00:00 12.4 6 Nordeste 10 Este 0 -- -- 97
2018-05-05 07:00:00 11.9 3 Nordeste 8 Este 0 -- -- 96
2018-05-05 06:00:00 12.6 5 Este 9 Este 0 -- -- 96
2018-05-05 05:00:00 12.6 3 Este 7 Este 0 -- -- 95
2018-05-05 04:00:00 13.3 4 Este 7 Este 0 -- -- 95
2018-05-05 03:00:00 13.7 3 Nordeste 8 Este 0 -- -- 95
2018-05-05 02:00:00 14.2 4 Este 9 Este 0 -- -- 94
2018-05-05 01:00:00 14.7 3 Nordeste 4 Nordeste 0 -- -- 93
2018-05-05 00:00:00 15.4 2 Este 8 Sudeste 0 -- -- 90
2018-05-04 23:00:00 16.4 4 Sudeste 7 Sudeste 0 -- -- 89
2018-05-04 22:00:00 17.1 6 Sudoeste 11 Sudoeste 0 -- -- 86
2018-05-04 21:00:00 17.8 6 Sur 21 Sudeste 0 -- -- 81
2018-05-04 20:00:00 19 13 Sur 24 Sur 0 -- -- 70
2018-05-04 19:00:00 20.1 13 Sur 24 Sur 0 -- -- 70
2018-05-04 18:00:00 19.8 15 Sur 27 Sudoeste 0 -- -- 72
2018-05-04 17:00:00 19.8 18 Sudoeste 30 Sudoeste 0 -- -- 73
2018-05-04 16:00:00 20.6 15 Sudoeste 25 Sudoeste 0 -- -- 72
2018-05-04 15:00:00 21.3 12 Sur 28 Sur 0 -- -- 74
2018-05-04 14:00:00 21.4 10 Sur 20 Sur 0 -- -- 75
2018-05-04 13:00:00 19.8 12 Oeste 17 Oeste 0 -- -- 82
2018-05-04 12:00:00 18.4 8 Noroeste 14 Oeste 0 -- -- 88
2018-05-04 11:00:00 18.2 11 Oeste 14 Oeste 0 -- -- 88
2018-05-04 10:00:00 18.1 7 Sudeste 13 Este 0 -- -- 87
2018-05-04 09:00:00 15.9 2 Este 9 Este 0 -- -- 99
2018-05-04 08:00:00 14.9 3 Sudeste 9 Sudeste 0 -- -- 99
2018-05-04 07:00:00 14.4 4 Sudeste 7 Sudeste 0 -- -- 97
2018-05-04 06:00:00 14.3 4 Sudeste 12 Sudeste 0 -- -- 96
2018-05-04 05:00:00 14.3 3 Este 6 Este 0 -- -- 96
2018-05-04 04:00:00 14.2 4 Este 8 Este 0 -- -- 95
2018-05-04 03:00:00 14.6 3 Nordeste 5 Este 0 -- -- 94
2018-05-04 02:00:00 15.6 4 Este 6 Nordeste 0 -- -- 93
2018-05-04 01:00:00 16.5 2 Sudeste 17 Sur 0 -- -- 91
2018-05-04 00:00:00 16.8 7 Sur 17 Sudoeste 0 -- -- 90
2018-05-03 23:00:00 16.9 11 Sudoeste 22 Sudoeste 0 -- -- 89
2018-05-03 22:00:00 17 13 Sudoeste 25 Oeste 0 -- -- 86
2018-05-03 21:00:00 17.2 18 Sudoeste 32 Sudoeste 0 -- -- 77
2018-05-03 20:00:00 17.7 22 Oeste 37 Sudoeste 0 -- -- 74
2018-05-03 19:00:00 18.6 23 Oeste 32 Oeste 0 -- -- 71
2018-05-03 18:00:00 19 21 Oeste 30 Oeste 0 -- -- 73
2018-05-03 17:00:00 19.1 20 Oeste 27 Sudoeste 0 -- -- 70
2018-05-03 16:00:00 18.9 19 Oeste 27 Oeste 0 -- -- 63
2018-05-03 15:00:00 18.7 20 Oeste 29 Oeste 0 -- -- 66
2018-05-03 14:00:00 17.7 17 Oeste 25 Oeste 0 -- -- 73
2018-05-03 13:00:00 17.5 14 Oeste 21 Oeste 0 -- -- 73
2018-05-03 12:00:00 18.2 6 Noroeste 15 Noroeste 0 -- -- 64
2018-05-03 11:00:00 16.7 8 Norte 19 Noroeste 0 -- -- 66
2018-05-03 10:00:00 15.8 9 Nordeste 20 Norte 0 -- -- 70
2018-05-03 09:00:00 13.3 4 Norte 12 Nordeste 0 -- -- 89
2018-05-03 08:00:00 9.5 3 Norte 5 Nordeste 0 -- -- 94
2018-05-03 07:00:00 9.3 0 Calma 5 Este 0 -- -- 91
2018-05-03 06:00:00 10 3 Nordeste 5 Este 0 -- -- 91
2018-05-03 05:00:00 10.4 4 Nordeste 5 Este 0 -- -- 89
2018-05-03 04:00:00 12.7 0 Calma 11 Norte 0 -- -- 85
2018-05-03 03:00:00 14 5 Norte 14 Noroeste 0 -- -- 78
2018-05-03 02:00:00 15 8 Noroeste 19 Oeste 0 -- -- 80
2018-05-03 01:00:00 15.2 12 Oeste 22 Oeste 0 -- -- 80
2018-05-03 00:00:00 15 11 Oeste 23 Oeste 0 -- -- 75
2018-05-02 23:00:00 14.9 14 Oeste 21 Oeste 0 -- -- 73
2018-05-02 22:00:00 14.8 13 Oeste 22 Oeste 0 -- -- 71
2018-05-02 21:00:00 15.3 14 Oeste 22 Oeste 0 -- -- 66
2018-05-02 20:00:00 16.5 15 Oeste 26 Oeste 0 -- -- 56
2018-05-02 19:00:00 17 17 Oeste 25 Sudoeste 0 -- -- 54
2018-05-02 18:00:00 17.2 17 Sudoeste 27 Sudoeste 0 -- -- 54
2018-05-02 17:00:00 17.4 18 Oeste 24 Sudoeste 0 -- -- 47
2018-05-02 16:00:00 17.3 15 Oeste 25 Oeste 0 -- -- 50
2018-05-02 15:00:00 17.2 16 Oeste 23 Oeste 0 -- -- 44
2018-05-02 14:00:00 16.7 17 Oeste 23 Oeste 0 -- -- 55
2018-05-02 13:00:00 16.5 13 Oeste 21 Oeste 0 -- -- 62
2018-05-02 12:00:00 15.4 13 Oeste 21 Oeste 0 -- -- 68
2018-05-02 11:00:00 14.7 9 Noroeste 16 Oeste 0 -- -- 72
2018-05-02 10:00:00 14 4 Norte 10 Nordeste 0 -- -- 75
2018-05-02 09:00:00 13.4 5 Nordeste 9 Nordeste 0 -- -- 79
2018-05-02 08:00:00 12.1 4 Noroeste 11 Noroeste 0 -- -- 79
2018-05-02 07:00:00 12 4 Noroeste 13 Norte 0 -- -- 78
2018-05-02 06:00:00 12.3 6 Noroeste 15 Noroeste 0 -- -- 76
2018-05-02 05:00:00 12.8 6 Noroeste 18 Noroeste 0 -- -- 73
2018-05-02 04:00:00 13.2 10 Noroeste 19 Oeste 0 -- -- 73
2018-05-02 03:00:00 13.5 11 Noroeste 26 Oeste 0 -- -- 74
2018-05-02 02:00:00 14.3 17 Noroeste 28 Noroeste 0 -- -- 77
2018-05-02 01:00:00 11.6 6 Oeste 11 Oeste 0 -- -- 93
2018-05-02 00:00:00 12 0 Calma 4 Este 0 -- -- 91
2018-05-01 23:00:00 13.1 3 Este 6 Sudeste 0 -- -- 89
2018-05-01 22:00:00 13.8 3 Sudeste 8 Este 0 -- -- 87
2018-05-01 21:00:00 14.7 4 Nordeste 13 Oeste 0 -- -- 82
2018-05-01 20:00:00 14.7 8 Oeste 17 Sudoeste 0.2 -- -- 75
2018-05-01 19:00:00 13.7 13 Sudoeste 19 Sudoeste 0.6 -- -- 82
2018-05-01 18:00:00 15.4 11 Norte 39 Sudoeste 0 -- -- 61
2018-05-01 17:00:00 17.3 24 Oeste 37 Sudoeste 0 -- -- 65
2018-05-01 16:00:00 16.9 25 Oeste 37 Oeste 0 -- -- 66
2018-05-01 15:00:00 16.3 22 Oeste 37 Oeste 0 -- -- 64
2018-05-01 14:00:00 15.7 23 Oeste 35 Oeste 0 -- -- 67
2018-05-01 13:00:00 15.2 21 Oeste 29 Oeste 0 -- -- 71
2018-05-01 12:00:00 14.8 19 Oeste 32 Oeste 0 -- -- 75
2018-05-01 11:00:00 14.4 18 Oeste 27 Oeste 0 -- -- 79
2018-05-01 10:00:00 13.8 12 Oeste 19 Oeste 0 -- -- 83
2018-05-01 09:00:00 13 9 Noroeste 15 Oeste 0 -- -- 88
2018-05-01 08:00:00 11 0 Calma 5 Noroeste 0 -- -- 87
2018-05-01 07:00:00 12.7 3 Noroeste 18 Noroeste 0 -- -- 85
2018-05-01 06:00:00 12.9 12 Noroeste 22 Noroeste 0 -- -- 84
2018-05-01 05:00:00 13 14 Noroeste 27 Noroeste 0 -- -- 82
2018-05-01 04:00:00 13.3 14 Noroeste 29 Noroeste 0 -- -- 78
2018-05-01 03:00:00 13.7 17 Noroeste 30 Noroeste 0 -- -- 75
2018-05-01 02:00:00 14.3 19 Noroeste 32 Noroeste 0 -- -- 74
2018-05-01 01:00:00 14.9 17 Oeste 27 Oeste 0 -- -- 72
2018-05-01 00:00:00 14.4 13 Oeste 22 Oeste 0 -- -- 75
2018-04-30 23:00:00 14.3 13 Oeste 24 Sudoeste 0 -- -- 74
2018-04-30 22:00:00 14.1 13 Sudoeste 25 Sudoeste 0 -- -- 78
2018-04-30 21:00:00 14.7 17 Oeste 26 Oeste 0 -- -- 71
2018-04-30 20:00:00 15.8 15 Sudoeste 24 Sudoeste 0 -- -- 64
2018-04-30 19:00:00 16.4 12 Sudoeste 23 Sudoeste 0 -- -- 62
2018-04-30 18:00:00 15.9 15 Oeste 22 Oeste 0 -- -- 65
2018-04-30 17:00:00 16.1 13 Oeste 21 Oeste 0 -- -- 64
2018-04-30 16:00:00 15.9 13 Oeste 26 Sudoeste 0 -- -- 63
2018-04-30 15:00:00 16.2 13 Oeste 21 Oeste 0 -- -- 61
2018-04-30 14:00:00 15.8 11 Oeste 17 Sudoeste 0 -- -- 59
2018-04-30 13:00:00 15.6 7 Oeste 15 Noroeste 0 -- -- 59
2018-04-30 12:00:00 15.6 8 Oeste 14 Noroeste 0 -- -- 62
2018-04-30 11:00:00 14.8 6 Noroeste 12 Noroeste 0 -- -- 63
2018-04-30 10:00:00 14.4 5 Nordeste 12 Este 0 -- -- 66
2018-04-30 09:00:00 12.4 6 Este 9 Este 0 -- -- 78
2018-04-30 08:00:00 10.6 5 Nordeste 9 Nordeste 0 -- -- 80
2018-04-30 07:00:00 12.1 3 Norte 16 Noroeste 0 -- -- 75
2018-04-30 06:00:00 12.5 7 Noroeste 21 Noroeste 0 -- -- 72
2018-04-30 05:00:00 12.9 10 Noroeste 21 Noroeste 0 -- -- 72
2018-04-30 04:00:00 13.2 13 Noroeste 24 Noroeste 0 -- -- 72
2018-04-30 03:00:00 13.6 12 Noroeste 21 Noroeste 0 -- -- 71
2018-04-30 02:00:00 14.1 11 Noroeste 22 Noroeste 0 -- -- 67
2018-04-30 01:00:00 14.6 14 Noroeste 28 Oeste 0 -- -- 63
2018-04-30 00:00:00 15.2 19 Oeste 35 Oeste 0 -- -- 67
2018-04-29 23:00:00 15.2 24 Oeste 36 Oeste 0 -- -- 65
2018-04-29 22:00:00 15 22 Oeste 40 Sudoeste 0 -- -- 72
2018-04-29 21:00:00 15.4 23 Oeste 36 Sudoeste 0 -- -- 69
2018-04-29 20:00:00 16.3 27 Oeste 52 Sudoeste 0 -- -- 67
2018-04-29 19:00:00 17.1 26 Sudoeste 45 Sudoeste 0 -- -- 62
2018-04-29 18:00:00 17.5 27 Sudoeste 43 Sudoeste 0 -- -- 58
2018-04-29 17:00:00 17.8 27 Sudoeste 39 Sudoeste 0 -- -- 59
2018-04-29 16:00:00 17.7 24 Oeste 39 Sudoeste 0 -- -- 61
2018-04-29 15:00:00 17.6 25 Oeste 36 Oeste 0 -- -- 60
2018-04-29 14:00:00 17.3 23 Oeste 37 Oeste 0 -- -- 59
2018-04-29 13:00:00 16.7 22 Oeste 32 Oeste 0 -- -- 60
2018-04-29 12:00:00 16.1 21 Oeste 36 Oeste 0 -- -- 60
2018-04-29 11:00:00 15.7 22 Oeste 35 Oeste 0 -- -- 65
2018-04-29 10:00:00 15.1 23 Oeste 36 Oeste 0 -- -- 67
2018-04-29 09:00:00 14.1 22 Oeste 39 Oeste 0 -- -- 67
2018-04-29 08:00:00 13.4 19 Oeste 35 Oeste 0 -- -- 73
2018-04-29 07:00:00 13.4 22 Oeste 38 Oeste 0 -- -- 70
2018-04-29 06:00:00 13.3 23 Oeste 39 Oeste 0 -- -- 72
2018-04-29 05:00:00 13.3 24 Oeste 39 Oeste 0 -- -- 69
2018-04-29 04:00:00 12.9 23 Oeste 42 Sudoeste 0.2 -- -- 82
2018-04-29 03:00:00 13.6 24 Oeste 41 Oeste 0 -- -- 71
2018-04-29 02:00:00 13.7 24 Oeste 40 Oeste 0 -- -- 72
2018-04-29 01:00:00 13.7 27 Oeste 46 Sudoeste 0.2 -- -- 74
2018-04-29 00:00:00 14 21 Sudoeste 42 Oeste 0 -- -- 75
2018-04-28 23:00:00 14.1 24 Oeste 43 Sudoeste 0.2 -- -- 76
2018-04-28 22:00:00 14.2 26 Oeste 40 Oeste 0 -- -- 81
2018-04-28 21:00:00 14.5 22 Sudoeste 36 Sudoeste 0.2 -- -- 73
2018-04-28 20:00:00 14.9 20 Sudoeste 36 Sudoeste 0 -- -- 79
2018-04-28 19:00:00 16.9 22 Sudoeste 33 Sudoeste 0 -- -- 62
2018-04-28 18:00:00 17.2 19 Sudoeste 30 Sudoeste 0 -- -- 56
2018-04-28 17:00:00 17.5 16 Sudoeste 31 Sudoeste 0 -- -- 55
2018-04-28 16:00:00 17.3 18 Sudoeste 31 Sudoeste 0 -- -- 55
2018-04-28 15:00:00 16.8 18 Oeste 26 Oeste 0 -- -- 53
2018-04-28 14:00:00 16.5 19 Oeste 29 Oeste 0 -- -- 53
2018-04-28 13:00:00 16.3 19 Oeste 28 Oeste 0 -- -- 59
2018-04-28 12:00:00 15.9 19 Oeste 27 Oeste 0 -- -- 59
2018-04-28 11:00:00 15.6 17 Oeste 27 Oeste 0 -- -- 58
2018-04-28 10:00:00 15 15 Noroeste 27 Oeste 0 -- -- 59
2018-04-28 09:00:00 14.1 15 Noroeste 30 Noroeste 0 -- -- 64
2018-04-28 08:00:00 13.7 14 Oeste 26 Oeste 0 -- -- 80
2018-04-28 07:00:00 14.1 15 Noroeste 28 Oeste 0 -- -- 84
2018-04-28 06:00:00 14.5 15 Oeste 29 Oeste 0 -- -- 87
2018-04-28 05:00:00 15.1 14 Noroeste 25 Noroeste 0 -- -- 85
2018-04-28 04:00:00 15.6 14 Noroeste 27 Noroeste 0 -- -- 85
2018-04-28 03:00:00 16.3 17 Noroeste 28 Noroeste 0 -- -- 83
2018-04-28 02:00:00 17.4 16 Noroeste 28 Noroeste 0 -- -- 81
2018-04-28 01:00:00 17.9 13 Oeste 22 Oeste 0 -- -- 88
2018-04-28 00:00:00 17.8 12 Sudoeste 21 Oeste 0 -- -- 86
2018-04-27 23:00:00 18.1 13 Oeste 24 Oeste 0 -- -- 83
2018-04-27 22:00:00 18.3 16 Oeste 28 Sudoeste 0 -- -- 81
2018-04-27 21:00:00 18.7 20 Oeste 33 Sudoeste 0 -- -- 79
2018-04-27 20:00:00 19.7 20 Oeste 32 Sudoeste 0 -- -- 74
2018-04-27 19:00:00 20.2 19 Sudoeste 29 Sudoeste 0 -- -- 67
2018-04-27 18:00:00 20.7 15 Sudoeste 25 Sudoeste 0 -- -- 73
2018-04-27 17:00:00 20.8 14 Oeste 24 Oeste 0 -- -- 63
2018-04-27 16:00:00 20 16 Oeste 24 Oeste 0 -- -- 66
2018-04-27 15:00:00 20.1 13 Sudoeste 22 Oeste 0 -- -- 75
2018-04-27 14:00:00 19.2 14 Oeste 22 Oeste 0 -- -- 80
2018-04-27 13:00:00 18.6 15 Oeste 23 Oeste 0 -- -- 79
2018-04-27 12:00:00 18.9 14 Oeste 19 Oeste 0 -- -- 80
2018-04-27 11:00:00 18.5 11 Oeste 18 Oeste 0 -- -- 92
2018-04-27 10:00:00 17.6 8 Oeste 12 Oeste 0 -- -- 95
2018-04-27 09:00:00 15.6 0 Calma 3 Sudeste 0 -- -- 100
2018-04-27 08:00:00 13.5 2 Este 4 Este 0 -- -- 99
2018-04-27 07:00:00 14.1 0 Calma 6 Sudeste 0 -- -- 99
2018-04-27 06:00:00 14.4 3 Este 5 Este 0 -- -- 98
2018-04-27 05:00:00 14.7 4 Sudeste 6 Sudeste 0 -- -- 98
2018-04-27 04:00:00 15.8 0 Calma 7 Oeste 0 -- -- 98
2018-04-27 03:00:00 15.8 2 Sudoeste 5 Sudoeste 0 -- -- 98
2018-04-27 02:00:00 15.7 0 Calma 6 Sur 0 -- -- 97
2018-04-27 01:00:00 16.2 4 Sur 10 Sudeste 0 -- -- 97
2018-04-27 00:00:00 16.7 8 Sudeste 15 Sudeste 0 -- -- 97
2018-04-26 23:00:00 16.9 8 Sudeste 15 Sudeste 0 -- -- 96
2018-04-26 22:00:00 17.3 6 Sur 15 Sur 0 -- -- 93
2018-04-26 21:00:00 18.3 8 Sur 15 Sudoeste 0 -- -- 89
2018-04-26 20:00:00 19.8 8 Sur 17 Sudoeste 0 -- -- 82
2018-04-26 19:00:00 20.3 10 Sur 18 Sudoeste 0 -- -- 81
2018-04-26 18:00:00 20.8 11 Sur 19 Sudoeste 0 -- -- 79
2018-04-26 17:00:00 20.5 11 Sudoeste 22 Sudoeste 0 -- -- 83
2018-04-26 16:00:00 20.1 14 Sudoeste 22 Sudoeste 0 -- -- 83
2018-04-26 15:00:00 20.5 12 Sur 21 Sudoeste 0 -- -- 84
2018-04-26 14:00:00 19.5 10 Sur 18 Sudoeste 0 -- -- 87
2018-04-26 13:00:00 18.8 7 Sudoeste 15 Sudoeste 0 -- -- 89
2018-04-26 12:00:00 18.9 9 Oeste 15 Sudoeste 0 -- -- 87
2018-04-26 11:00:00 19 3 Oeste 9 Sur 0 -- -- 87
2018-04-26 10:00:00 17.6 4 Sur 12 Sur 0 -- -- 96
2018-04-26 09:00:00 16 7 Sur 12 Sur 0 -- -- 100
2018-04-26 08:00:00 14.9 4 Sudeste 7 Sudeste 0 -- -- 99
2018-04-26 07:00:00 14.8 4 Sudeste 11 Este 0 -- -- 98
2018-04-26 06:00:00 15.2 7 Este 21 Este 0 -- -- 97
2018-04-26 05:00:00 15.8 6 Este 10 Este 0 -- -- 97
2018-04-26 04:00:00 16.4 5 Este 23 Este 0 -- -- 96
2018-04-26 03:00:00 17 15 Oeste 33 Sudoeste 0.4 -- -- 97
2018-04-26 02:00:00 16.6 12 Sur 37 Nordeste 6 -- -- 96
2018-04-26 01:00:00 16.8 5 Sudoeste 19 Sur 0 -- -- 93
2018-04-26 00:00:00 17 9 Sur 20 Sudoeste 0 -- -- 93
2018-04-25 23:00:00 17 10 Sur 19 Sur 0 -- -- 93
2018-04-25 22:00:00 17 13 Sur 22 Sudeste 0 -- -- 93
2018-04-25 21:00:00 17.4 9 Sur 24 Sur 0 -- -- 91
2018-04-25 20:00:00 18.6 13 Sur 27 Sur 0 -- -- 86
2018-04-25 19:00:00 19.4 16 Sur 29 Sur 0 -- -- 83
2018-04-25 18:00:00 20 18 Sur 27 Sur 0 -- -- 81
2018-04-25 17:00:00 20.2 15 Sur 24 Sur 0 -- -- 80
2018-04-25 16:00:00 21.2 13 Sur 24 Sur 0 -- -- 79
2018-04-25 15:00:00 21.3 10 Sur 17 Sur 0 -- -- 78
2018-04-25 14:00:00 19.9 7 Sur 22 Sudoeste 0 -- -- 84
2018-04-25 13:00:00 19.9 9 Sur 15 Sur 0 -- -- 83
2018-04-25 12:00:00 19 5 Sur 13 Sudoeste 0 -- -- 86
2018-04-25 11:00:00 18.3 4 Sur 12 Sur 0 -- -- 89
2018-04-25 10:00:00 17.7 9 Sur 14 Sur 0 -- -- 93
2018-04-25 09:00:00 16 6 Sur 10 Sur 0 -- -- 98
2018-04-25 08:00:00 14.8 3 Oeste 10 Sudeste 0 -- -- 95
2018-04-25 07:00:00 15 5 Sudeste 10 Sudeste 0 -- -- 94
2018-04-25 06:00:00 15.5 5 Sudeste 17 Sur 0 -- -- 94
2018-04-25 05:00:00 15.2 0 Calma 6 Sudeste 0 -- -- 95
2018-04-25 04:00:00 15.7 4 Sur 10 Sur 0 -- -- 95
2018-04-25 03:00:00 16.5 5 Sur 17 Sudeste 0 -- -- 96
2018-04-25 02:00:00 16.5 9 Sudeste 16 Sudeste 0 -- -- 92
2018-04-25 01:00:00 17.7 2 Sudoeste 32 Nordeste 0 -- -- 84
2018-04-25 00:00:00 18.5 20 Oeste 30 Oeste 0 -- -- 91
2018-04-24 23:00:00 18.3 0 Calma 15 Oeste 0 -- -- 92
2018-04-24 22:00:00 18.4 6 Noroeste 11 Oeste 0 -- -- 88
2018-04-24 21:00:00 18.8 5 Noroeste 17 Oeste 0 -- -- 87
2018-04-24 20:00:00 19.8 10 Oeste 15 Oeste 0 -- -- 84
2018-04-24 19:00:00 20.2 10 Oeste 19 Oeste 0 -- -- 83
2018-04-24 18:00:00 20.4 14 Oeste 20 Oeste 0 -- -- 82
2018-04-24 17:00:00 20.4 13 Oeste 20 Sudoeste 0 -- -- 82
2018-04-24 16:00:00 20.5 14 Oeste 23 Oeste 0 -- -- 81
2018-04-24 15:00:00 20.5 19 Oeste 24 Oeste 0 -- -- 79
2018-04-24 14:00:00 21.7 14 Sudoeste 27 Sudoeste 0 -- -- 72
2018-04-24 13:00:00 22.9 12 Sudeste 21 Sur 0 -- -- 66
2018-04-24 12:00:00 21.3 15 Sudeste 24 Sudeste 0 -- -- 70
2018-04-24 11:00:00 20.2 8 Sudeste 18 Sudeste 0 -- -- 79
2018-04-24 10:00:00 18.5 5 Sudeste 14 Sudeste 0 -- -- 92
2018-04-24 09:00:00 17 9 Sudeste 18 Sudeste 0 -- -- 95
2018-04-24 08:00:00 16.1 9 Sudeste 13 Sudeste 0 -- -- 95
2018-04-24 07:00:00 16.3 5 Sudeste 17 Sudeste 0 -- -- 92
2018-04-24 06:00:00 16.6 15 Sur 32 Sur 0.6 -- -- 89
2018-04-24 05:00:00 16.1 3 Sudeste 13 Este 0.6 -- -- 92
2018-04-24 04:00:00 15.9 8 Este 14 Este 0 -- -- 93
2018-04-24 03:00:00 16 4 Este 7 Este 0 -- -- 94
2018-04-24 02:00:00 16.2 3 Sudeste 7 Sur 0 -- -- 94
2018-04-24 01:00:00 16.7 2 Sudeste 6 Este 0 -- -- 92
2018-04-24 00:00:00 17.4 3 Este 4 Este 0 -- -- 91